View Sortable Currents For Network
ASOSAWOSCoCoRaHSCOOPDCPISUSM
SchoolNetOtherSCANMy FavoritesBy StateRWIS
RWIS SurfaceRWIS TrafficRWIS SoilBy NWS WFOUSCRN
ADD: Station: Ob Time Temps °F     Wind [knots] Precip
Air (Hi / Lo) DewP Feels RH% Vis Speed Direction Gust @Time Accum [1]
Steamboat Rock (US20)01:24 AM 40.28(43.88/40.28) 29.3 33 65 0 10G12 340 19@ 12:14 AM 0
Red Oak (US 34/US 71)01:24 AM 35.24(37.22/35.06) 35.24 35 100 0 0 315 1@ 12:43 AM 0
Ottumwa (US 63)01:24 AM 42.8(43.34/41.72) 39.2 40 87 7.1 4G5 295 6@ 12:04 AM 0
Urbana (I-380)01:24 AM 42.44(42.8/40.1) 29.66 37 60 1.1 9G13 355 13@ 01:24 AM 0
Saratoga01:24 AM 38.84(40.82/38.84) 26.42 33 61 0 8G12 355 16@ 01:05 AM 0
Hawkeye01:24 AM 38.12(44.24/38.12) 27.68 33 66 0 6G8 320 14@ 12:05 AM 0
Denison01:24 AM 43.34(46.22/43.34) 28.4 43 55 0.5 0 10 0@ 06:00 PM 0
Sloan I-2901:23 AM 38.48(41.72/37.22) 31.64 35 76 7.1 4G5 290 6@ 12:43 AM 0
Maquoketa (US 61/IA 64)01:23 AM 46.76(48.56/46.4) 24.98 44 42 0 5G10 325 10@ 01:23 AM 0
Leon (I-35)/IA 2)01:23 AM 47.66(47.84/46.04) 30.38 44 51 0.1 6G8 10 9@ 12:53 AM 0
Manchester (US 20)01:23 AM 40.64(44.06/40.64) 26.06 41 56 0 2G5 300 8@ 12:53 AM 0
Jefferson (IA 4)01:23 AM 38.66(40.82/36.86) 32 39 77 3.4 2G3 255 4@ 12:22 AM 0
Mount Pleasant (US 218)01:23 AM 37.76(38.66/37.4) 36.86 38 97 0 0G1 5 2@ 12:03 AM 0
Marshalltown (US 30)01:23 AM 41(42.8/40.82) 29.48 38 63 0 4G8 335 8@ 12:53 AM 0
Osceola (I-35)01:23 AM 46.22(48.2/46.22) 34.52 44 63 1.5 4G6 0 8@ 12:54 AM 0
Missouri Valley (I-29)01:23 AM 43.16(45.32/41.54) 34.52 43 71 0.1 1G3 345 5@ 12:23 AM 0
Decorah (IA 9)01:22 AM 55.22(57.02/55.22) 37.4 55 51 6.9 11G16 305 16@ 12:01 AM 0
Fort Dodge (US 20)01:22 AM 41.36(42.44/41.36) 28.04 37 59 0 5G8 5 8@ 01:22 AM 0
Iowa City (I-80)01:22 AM (/) 0 0 0 0 361 0@ 06:00 PM 0
Iowa City (US 218)01:22 AM 47.66(50/47.66) 35.24 44 62 0 6G6 325 8@ 12:12 AM 0
De Soto (I-80/US 169)01:22 AM 42.62(43.88/42.62) 33.26 43 69 0.3 2G4 340 4@ 01:22 AM 0
Sidney (I-29/IA 2)01:22 AM 46.76(50.18/46.76) 39.02 44 74 7.1 4G5 350 7@ 12:02 AM 0
Des Moines (I-235)01:22 AM 46.04(46.76/45.86) 33.8 46 62 0 0 361 0@ 06:00 PM 0
Storm Lake (US 71/IA 3)01:21 AM 32.9(34.88/32.54) 27.86 30 81 0.1 3G5 345 5@ 01:21 AM 0
Centerville (IA 2)01:21 AM 44.96(44.96/42.44) 33.98 44 65 0 3G5 355 6@ 01:00 AM 0
Creston (US 34)01:21 AM 42.62(47.66/42.62) 28.76 39 58 0 5G5 20 9@ 12:51 AM 0
Council Bluffs (I-80)01:21 AM 49.46(51.98/49.46) 48.92 47 98 0 5G6 160 6@ 12:51 AM 0
Spencer (US 18)01:21 AM (/) 0 0 1.2 3G4 295 6@ 12:41 AM 0
Pella (IA 163)01:21 AM 42.62(45.5/42.62) 30.2 43 61 0 2G4 340 4@ 12:41 AM 0
Anamosa (US 151)01:20 AM 46.22(48.74/45.5) 30.74 40 55 1.2 11G15 350 15@ 12:00 AM 0
Williamsburg (I-80)01:20 AM 45.5(45.86/44.6) 33.08 44 62 0.6 3G5 310 6@ 12:50 AM 0
Ida Grove (US 59)01:20 AM 36.86(38.66/36.86) 29.48 33 74 0 4 50 6@ 01:00 AM 0
Williams (I-35)01:20 AM 37.4(41/37.4) 27.86 31 68 0 7G9 0 12@ 12:30 AM 0
Sibley01:20 AM 39.38(41.36/39.38) 29.12 33 66 0.2 9G12 20 16@ 12:30 AM 0
Rockwell City01:20 AM 40.46(43.7/40.46) 28.4 38 62 0 4G6 0 11@ 12:40 AM 0
Quad Cities01:20 AM 48.02(51.08/48.02) 46.76 46 95 4.3 5G6 310 9@ 12:10 AM 0
Sioux City Maintenance01:20 AM (/) 0 0 0 0 0@ 06:00 PM 0
Cambridge I-3501:20 AM (/) 0 0 1.2 0 361 0@ 06:00 PM 0
Plainfield01:20 AM 39.92(44.24/39.38) 3.56 35 21 1.5 6G10 350 11@ 12:00 AM 0
Estherville - Hwy 901:20 AM 34.7(39.74/34.34) 27.14 32 74 0 3G8 305 10@ 12:10 AM 0
Colfax - I-8001:20 AM 39.2(43.52/38.66) 33.08 36 78 0.1 4G5 0 5@ 01:20 AM 0
Eddyville01:20 AM 43.34(43.34/41) 34.34 42 70 3.2 3G4 355 4@ 12:50 AM 0
Tama01:20 AM 41.72(45.5/41.72) -81.22 38 0 7.1 5G6 320 6@ 01:20 AM 0
Cantril01:20 AM 38.12(39.2/37.22) 29.84 38 72 0.2 2G4 0 5@ 12:40 AM 0
Bedford01:20 AM 34.16(35.42/33.98) 34.16 34 100 0.2 2G2 15 3@ 12:00 AM 0
New Hampton (US 18)01:20 AM 36.14(40.64/35.6) 28.94 36 75 3.6 0 10 11@ 12:00 AM 0
Adair (I-80)01:20 AM 44.96(46.4/44.96) 30.2 42 56 0.1 5G7 30 9@ 12:10 AM 0
Algona (US 18)01:20 AM 37.4(41/37.4) 28.4 30 70 0 9G12 15 13@ 12:00 AM 0
Altoona (I-80/US 65)01:20 AM 44.6(48.02/44.6) 30.38 42 57 3.1 4G5 0 9@ 12:00 AM 0
Sigourney (IA 92)01:20 AM (/) 0 0 0 0 5 0@ 06:00 PM 0
Moville01:20 AM 29.48(32.9/29.48) 28.94 29 98 0 0 130 2@ 12:00 AM 0
Elkhart I-35 No101:20 AM (/) 0 0 1.2 0 361 0@ 06:00 PM 0
Elkhart I-35 No201:20 AM (/) 0 0 1.2 0 361 0@ 06:00 PM 0
Burlington (US 34)01:20 AM 52.7(54.32/52.52) 37.76 53 57 0 3G8 355 8@ 01:20 AM 0
Council Bluffs No201:20 AM 39.56(41.9/39.56) 35.24 40 84 0 2G6 85 6@ 01:20 AM 0
Waterloo (US 20)01:20 AM 44.96(47.66/44.96) 33.44 41 64 0 6G11 5 11@ 12:30 AM 0
Hanlontown (I-35)01:20 AM 37.04(38.84/36.14) 27.32 37 68 0.4 0 10 0@ 06:00 PM 0
Mason City (I-35)01:20 AM 53.24(55.22/53.24) 39.02 53 58 0.1 0 350 0@ 06:00 PM 0
Cedar Rapids (US 30)01:20 AM 46.76(49.46/46.76) 29.84 45 52 0.1 4G6 260 10@ 01:00 AM 0
Carroll (US 30)01:20 AM 45.68(47.48/45.68) 28.4 41 51 0 8G14 0 15@ 01:10 AM 0
Cedar Rapids (I-380)01:20 AM 48.02(50.36/48.02) 29.84 46 49 1.2 4G9 5 9@ 12:50 AM 0
Tipton (I-80)01:20 AM 47.84(51.62/47.84) 30.02 47 50 1.6 3G5 330 10@ 12:00 AM 0
Avoca (I-80)01:20 AM 41.54(47.48/41.54) 27.86 42 58 1.2 1G6 15 19@ 12:10 AM 0
Alton (IA10)01:20 AM 33.26(34.88/30.56) 28.4 26 82 0 7G8 20 8@ 01:00 AM 0
De Witt (US 30/US 61)01:17 AM 39.02(43.52/39.02) 33.62 36 81 0 3G6 285 7@ 12:06 AM 0
Dubuque (US 20)01:17 AM 46.4(48.38/46.4) 29.12 45 51 0 3G8 305 8@ 12:26 AM 0
Victor01:16 AM 44.96(47.3/44.96) 0 0 0 5G8 323 10@ 12:45 AM 0
Des Moines (I-35)01:16 AM 41.9(47.12/41.9) 30.38 42 63 0 2G3 275 4@ 12:06 AM 0
Ankeny (I-35)01:16 AM 42.62(46.58/42.62) 30.02 43 61 1.2 0G4 290 9@ 12:16 AM 0


Notes:
1 Not all sites have the ability to measure precip nor visibility.
2 The Iowa City (I-80) RWIS site does not have atmospheric sensors on it , so it is not included on this page.